• Join FlightAware (Why Join?)
  • Login
  • US Flag 
03:27AM EDT


 

Airport Tracker/Info


-or-


 

Live Flight TrackerFlight Track Log ✈ DAL1979 ✈ 12-May-2013 ✈ KMSP - KMCO

Flight Track Log - Related Links

Times and Time Zones

All times are in EDT time to prevent confusion due to time zone crossing. See the DAL1979 flight status page for this flight to view local times or setup timezone preferences in your user account.

Time Position Orientation Groundspeed Altitude Reporting Facility
EDT Latitude Longitude Course Direction KTS MPH feet Rate Location/Type
11:42AM 44.8920 -93.2490 303° West 173 199 1,900  Level FlightAware
11:42AM 44.8940 -93.2610 283° West 185 213 2,200 1,440 Climbing FlightAware
11:43AM 44.8870 -93.3100 259° West 231 266 3,000 1,560 Climbing FlightAware
11:43AM 44.8840 -93.3320 259° West 245 282 3,500 2,520 Climbing FlightAware
11:43AM 44.8740 -93.3610 244° Southwest 255 293 4,500 2,400 Climbing FlightAware
11:44AM 44.8430 -93.3810 205° Southwest 285 328 5,500 2,280 Climbing FlightAware
11:44AM 44.8090 -93.3620 158° South 295 339 6,600 2,520 Climbing FlightAware
11:44AM 44.7970 -93.3410 129° Southeast 290 334 7,200 2,520 Climbing FlightAware
11:45AM 44.7790 -93.2980 121° Southeast 299 344 8,300 2,460 Climbing FlightAware
11:45AM 44.7550 -93.2470 124° Southeast 312 359 9,500 1,920 Climbing FlightAware
11:46AM 44.7200 -93.1780 126° Southeast 346 398 10,600 1,320 Climbing FlightAware
11:47AM 44.6750 -93.0920 126° Southeast 390 449 11,400 1,440 Climbing FlightAware
11:47AM 44.6320 -93.0100 126° Southeast 407 468 12,700 2,100 Climbing FlightAware
11:48AM 44.5800 -92.9090 126° Southeast 418 481 14,400 2,160 Climbing FlightAware
11:49AM 44.5340 -92.8210 126° Southeast 428 493 15,800 1,980 Climbing FlightAware
11:50AM 44.4890 -92.7340 126° Southeast 435 501 17,100 1,920 Climbing FlightAware
11:50AM 44.4330 -92.6280 126° Southeast 444 511 18,600 1,800 Climbing FlightAware
11:51AM 44.3830 -92.5330 126° Southeast 454 522 19,700 1,680 Climbing FlightAware
11:52AM 44.3300 -92.4300 126° Southeast 458 527 21,000 1,620 Climbing FlightAware
11:52AM 44.2850 -92.3280 122° Southeast 465 535 22,000 1,500 Climbing FlightAware
11:53AM 44.2400 -92.2240 121° Southeast 472 543 23,000 1,380 Climbing FlightAware
11:54AM 44.1880 -92.1040 121° Southeast 481 554 24,000 1,320 Climbing FlightAware
11:54AM 44.1410 -91.9980 122° Southeast 489 563 24,900 1,260 Climbing FlightAware
11:55AM 44.0930 -91.8880 121° Southeast 495 570 25,700 1,080 Climbing FlightAware
11:56AM 44.0390 -91.7680 122° Southeast 502 578 26,500 900 Climbing FlightAware
11:57AM 43.9830 -91.6400 121° Southeast 513 590 27,100 900 Climbing FlightAware
11:57AM 43.9330 -91.5300 122° Southeast 520 598 27,800 1,080 Climbing FlightAware
11:58AM 43.8730 -91.4230 128° Southeast 532 612 28,600 1,080 Climbing FlightAware
11:59AM 43.8040 -91.3260 135° Southeast 535 616 29,300 960 Climbing FlightAware
11:59AM 43.7260 -91.2170 135° Southeast 540 621 30,000 1,080 Climbing FlightAware
12:00PM 43.6560 -91.1200 135° Southeast 538 619 30,900 1,260 Climbing FlightAware
12:01PM 43.5750 -91.0080 135° Southeast 535 616 31,800 1,080 Climbing FlightAware
12:01PM 43.5040 -90.9110 135° Southeast 533 613 32,500 840 Climbing FlightAware
12:02PM 43.4270 -90.8060 135° Southeast 532 612 33,000 300 Climbing FlightAware
12:03PM 43.3600 -90.7130 135° Southeast 528 608 33,000  Level FlightAware
12:04PM 43.2800 -90.6050 135° Southeast 524 603 33,000  Level FlightAware
12:04PM 43.2090 -90.5080 135° Southeast 523 602 33,000  Level FlightAware
12:05PM 43.1430 -90.4190 135° Southeast 523 602 33,000  Level FlightAware
12:06PM 43.0690 -90.3180 135° Southeast 523 602 33,000  Level FlightAware
12:06PM 42.9960 -90.2210 136° Southeast 524 603 33,000  Level FlightAware
12:07PM 42.9300 -90.1320 135° Southeast 524 603 33,000  Level FlightAware
12:08PM 42.8510 -90.0260 135° Southeast 525 604 33,000  Level FlightAware
12:08PM 42.7710 -89.9500 145° Southeast 529 609 33,000  Level FlightAware
12:09PM 42.6670 -89.9170 167° South 526 605 33,000  Level FlightAware
12:10PM 42.5710 -89.8960 171° South 526 605 33,000  Level FlightAware
12:11PM 42.4710 -89.8740 171° South 526 605 33,000  Level FlightAware
12:11PM 42.3600 -89.8510 171° South 525 604 33,000  Level FlightAware
12:12PM 42.2660 -89.8310 171° South 525 604 33,000  Level FlightAware
12:13PM 42.1550 -89.8070 171° South 524 603 33,000  Level FlightAware
12:13PM 42.0590 -89.7860 171° South 524 603 33,000  Level FlightAware
12:14PM 41.9630 -89.7650 171° South 523 602 33,000  Level FlightAware
12:15PM 41.8600 -89.7430 171° South 522 601 33,000  Level FlightAware
12:16PM 41.7480 -89.7190 171° South 520 598 33,000  Level FlightAware
12:16PM 41.6550 -89.6990 171° South 520 598 33,000  Level FlightAware
12:17PM 41.5610 -89.6790 171° South 519 597 33,000  Level FlightAware
12:18PM 41.4540 -89.6570 171° South 518 596 33,000  Level FlightAware
12:18PM 41.3580 -89.6370 171° South 518 596 33,000  Level FlightAware
12:19PM 41.2660 -89.6170 171° South 517 595 33,000  Level FlightAware
12:20PM 41.1570 -89.5870 168° South 518 596 33,000  Level FlightAware
12:20PM 41.0650 -89.5550 165° South 518 596 33,000  Level FlightAware
12:21PM 40.9640 -89.5170 164° South 516 594 33,000  Level FlightAware
12:22PM 40.8700 -89.4830 165° South 515 593 33,000  Level FlightAware
12:23PM 40.7690 -89.4470 165° South 513 590 33,000  Level FlightAware
12:23PM 40.6770 -89.4150 165° South 513 590 33,000  Level FlightAware
12:24PM 40.5820 -89.3810 165° South 511 588 33,000  Level FlightAware
12:25PM 40.4850 -89.3460 165° South 510 587 33,000  Level FlightAware
12:25PM 40.3920 -89.3130 165° South 509 586 33,000  Level FlightAware
12:26PM 40.3050 -89.2830 165° South 508 585 33,000  Level FlightAware
12:27PM 40.1830 -89.2390 165° South 507 583 33,000  Level FlightAware
12:28PM 40.0750 -89.2020 165° South 507 583 33,000  Level FlightAware
12:28PM 39.9810 -89.1690 165° South 507 583 33,000  Level FlightAware
12:29PM 39.8810 -89.1340 165° South 507 583 33,000  Level FlightAware
12:30PM 39.7860 -89.1010 165° South 506 582 33,000  Level FlightAware
12:30PM 39.6870 -89.0660 165° South 505 581 33,000  Level FlightAware
12:31PM 39.5970 -89.0350 165° South 504 580 33,000  Level FlightAware
12:32PM 39.4930 -89.0000 165° South 504 580 33,000  Level FlightAware
12:33PM 39.4030 -88.9680 165° South 504 580 33,000  Level FlightAware
12:33PM 39.3140 -88.9380 165° South 500 575 33,000  Level FlightAware
12:34PM 39.2270 -88.9080 165° South 497 572 33,000  Level FlightAware
12:35PM 39.1400 -88.8780 165° South 497 572 33,000  Level FlightAware
12:35PM 39.0640 -88.8520 165° South 497 572 33,000  Level FlightAware
12:36PM 38.9370 -88.8090 165° South 484 557 33,000  Level FlightAware
12:37PM 38.8570 -88.7820 165° South 485 558 33,000  Level FlightAware
12:37PM 38.7570 -88.7480 165° South 484 557 33,000  Level FlightAware
12:38PM 38.6760 -88.7210 165° South 483 556 33,000  Level FlightAware
12:39PM 38.5800 -88.6890 165° South 483 556 33,000  Level FlightAware
12:40PM 38.4860 -88.6570 165° South 483 556 33,000  Level FlightAware
12:40PM 38.3980 -88.6280 166° South 487 560 33,000  Level FlightAware
12:41PM 38.3320 -88.6060 165° South 489 563 33,000  Level FlightAware
12:41PM 38.2430 -88.5760 165° South 490 564 33,000  Level FlightAware
12:42PM 38.1450 -88.5440 166° South 489 563 33,000  Level FlightAware
12:43PM 38.0540 -88.5140 165° South 488 562 33,000  Level FlightAware
12:43PM 37.9680 -88.4850 165° South 487 560 33,000  Level FlightAware
12:44PM 37.8710 -88.4530 165° South 487 560 33,000  Level FlightAware
12:45PM 37.7850 -88.4250 166° South 486 559 33,000  Level FlightAware
12:46PM 37.6970 -88.3960 165° South 485 558 33,000  Level FlightAware
12:46PM 37.5970 -88.3630 165° South 483 556 33,000  Level FlightAware
12:47PM 37.5120 -88.3350 165° South 480 552 33,000  Level FlightAware
12:48PM 37.4160 -88.3040 166° South 477 549 33,000  Level FlightAware
12:48PM 37.3310 -88.2760 165° South 480 552 33,000  Level FlightAware
12:49PM 37.2470 -88.2070 147° Southeast 513 590 33,000  Level FlightAware
12:50PM 37.1950 -88.1360 133° Southeast 513 590 33,000  Level FlightAware
12:50PM 37.1160 -88.0270 132° Southeast 514 592 33,000  Level FlightAware
12:51PM 37.0440 -87.9290 133° Southeast 514 592 33,000  Level FlightAware
12:52PM 36.9870 -87.8500 132° Southeast 515 593 33,000  Level FlightAware
12:53PM 36.9220 -87.7620 133° Southeast 516 594 33,000  Level FlightAware
12:53PM 36.8680 -87.6860 132° Southeast 516 594 33,000  Level FlightAware
12:54PM 36.8140 -87.6110 132° Southeast 516 594 33,000  Level FlightAware
12:55PM 36.7600 -87.5360 132° Southeast 516 594 33,000  Level FlightAware
12:55PM 36.6920 -87.4420 132° Southeast 516 594 33,000  Level FlightAware
12:56PM 36.6370 -87.3660 132° Southeast 516 594 33,000  Level FlightAware
12:57PM 36.5830 -87.2910 132° Southeast 516 594 33,000  Level FlightAware
12:57PM 36.5290 -87.2160 132° Southeast 516 594 33,000  Level FlightAware
12:58PM 36.4610 -87.1220 132° Southeast 516 594 33,000  Level FlightAware
12:59PM 36.4070 -87.0480 132° Southeast 516 594 33,000  Level FlightAware
01:00PM 36.3520 -86.9730 132° Southeast 516 594 33,000  Level FlightAware
01:00PM 36.2980 -86.8980 132° Southeast 516 594 33,000  Level FlightAware
01:01PM 36.2440 -86.8230 132° Southeast 516 594 33,000  Level FlightAware
01:02PM 36.1760 -86.7290 132° Southeast 516 594 33,000  Level FlightAware
01:04PM 35.5814 -86.7134 179° South 498 573 33,000  Level FlightAware ADS-B
01:04PM 35.5156 -86.6636 148° Southeast 498 573 33,000  Level FlightAware ADS-B
01:05PM 35.4543 -86.6171 148° Southeast 497 572 33,000  Level FlightAware ADS-B
01:05PM 35.3948 -86.5724 149° Southeast 496 571 33,000  Level FlightAware ADS-B
01:06PM 35.3201 -86.5160 148° Southeast 494 568 33,000  Level FlightAware ADS-B
01:08PM 35.0421 -86.3076 148° Southeast 489 563 33,000  Level FlightAware ADS-B
01:09PM 34.9796 -86.2611 149° Southeast 488 562 33,000  Level FlightAware ADS-B
01:09PM 34.9198 -86.2166 149° Southeast 489 563 33,000  Level FlightAware ADS-B
01:10PM 34.8613 -86.1730 149° Southeast 490 564 33,000  Level FlightAware ADS-B
01:11PM 34.7975 -86.1258 149° Southeast 489 563 33,000  Level FlightAware ADS-B
01:11PM 34.7280 -86.0744 149° Southeast 492 566 33,000  Level FlightAware ADS-B
01:12PM 34.6669 -86.0293 149° Southeast 495 570 33,000  Level FlightAware ADS-B
01:12PM 34.6056 -85.9842 149° Southeast 497 572 33,000  Level FlightAware ADS-B
01:13PM 34.5463 -85.9404 149° Southeast 499 574 33,000  Level FlightAware ADS-B
01:13PM 34.4846 -85.8951 149° Southeast 501 577 33,000  Level FlightAware ADS-B
01:14PM 34.4218 -85.8492 149° Southeast 502 578 33,000  Level FlightAware ADS-B
01:14PM 34.3613 -85.8048 149° Southeast 504 580 33,000  Level FlightAware ADS-B
01:15PM 34.3011 -85.7608 149° Southeast 505 581 33,000  Level FlightAware ADS-B
01:15PM 34.2368 -85.7139 149° Southeast 507 583 33,000  Level FlightAware ADS-B
01:16PM 34.1464 -85.6480 149° Southeast 505 581 33,000  Level FlightAware ADS-B
01:17PM 34.0772 -85.5978 149° Southeast 503 579 33,000  Level FlightAware ADS-B
01:17PM 33.9851 -85.5311 149° Southeast 502 578 33,000  Level FlightAware ADS-B
01:18PM 33.9223 -85.4857 149° Southeast 499 574 33,000  Level FlightAware ADS-B
01:18PM 33.8627 -85.4427 149° Southeast 498 573 33,000  Level FlightAware ADS-B
01:20PM 33.7440 -85.3570 149° Southeast 489 563 33,000  Level FlightAware
01:20PM 33.6568 -85.2948 149° Southeast 497 572 33,000  Level FlightAware ADS-B
01:21PM 33.5963 -85.2515 149° Southeast 495 570 33,000  Level FlightAware ADS-B
01:21PM 33.5340 -85.2069 149° Southeast 495 570 33,000  Level FlightAware ADS-B
01:22PM 33.4680 -85.1600 149° Southeast 489 563 33,000  Level FlightAware
01:22PM 33.3880 -85.1030 149° Southeast 490 564 33,000  Level FlightAware
01:23PM 33.3010 -85.0410 149° Southeast 493 567 33,000  Level FlightAware
01:24PM 33.2040 -84.9720 149° Southeast 503 579 33,000  Level FlightAware
01:25PM 33.1100 -84.9060 150° Southeast 503 579 33,000  Level FlightAware
01:25PM 33.0290 -84.8490 149° Southeast 509 586 33,000  Level FlightAware
01:26PM 32.9320 -84.7800 149° Southeast 508 585 33,000  Level FlightAware
01:27PM 32.8690 -84.7360 150° Southeast 507 583 33,000  Level FlightAware
01:28PM 32.7900 -84.6800 149° Southeast 507 583 33,000  Level FlightAware
01:28PM 32.7220 -84.6310 149° Southeast 507 583 33,000  Level FlightAware
01:29PM 32.5980 -84.5470 150° Southeast 506 582 33,000  Level FlightAware
01:30PM 32.5110 -84.4860 149° Southeast 504 580 33,000  Level FlightAware
01:30PM 32.4440 -84.4390 149° Southeast 504 580 33,000  Level FlightAware
01:31PM 32.3760 -84.3910 149° Southeast 504 580 33,000  Level FlightAware
01:32PM 32.3080 -84.3430 149° Southeast 504 580 33,000  Level FlightAware
01:33PM 32.2230 -84.2820 149° Southeast 504 580 33,000  Level FlightAware
01:33PM 32.1720 -84.2460 149° Southeast 504 580 33,000  Level FlightAware
01:34PM 32.0870 -84.1860 149° Southeast 504 580 33,000  Level FlightAware
01:35PM 32.0190 -84.1380 149° Southeast 504 580 33,000  Level FlightAware
01:35PM 31.9510 -84.0890 149° Southeast 504 580 33,000  Level FlightAware
01:36PM 31.8830 -84.0410 149° Southeast 504 580 33,000  Level FlightAware
01:37PM 31.7990 -83.9810 149° Southeast 504 580 33,000  Level FlightAware
01:37PM 31.7310 -83.9330 149° Southeast 504 580 33,000  Level FlightAware
01:38PM 31.6630 -83.8850 149° Southeast 504 580 33,000  Level FlightAware
01:39PM 31.5950 -83.8370 149° Southeast 504 580 33,000  Level FlightAware
01:40PM 31.5100 -83.7770 149° Southeast 504 580 33,000  Level FlightAware
01:41PM 31.2253 -83.5436 149° Southeast 510 587 33,000  Level Jacksonville Center
01:42PM 31.1047 -83.4556 148° Southeast 510 587 33,000  Level Jacksonville Center
01:43PM 30.9858 -83.3700 148° Southeast 510 587 33,000 -60 Level Jacksonville Center
01:44PM 30.8653 -83.2847 149° Southeast 510 587 32,900 -1,260 Descending Jacksonville Center
01:45PM 30.7483 -83.1972 147° Southeast 510 587 30,500 -2,700 Descending Jacksonville Center
01:46PM 30.6297 -83.1097 148° Southeast 510 587 27,500 -1,800 Descending Jacksonville Center
01:47PM 30.5150 -83.0058 142° Southeast 515 593 26,900 -480 Descending Jacksonville Center
01:53PM 29.7380 -82.3690 142° Southeast 467 537 24,300 -420 Descending FlightAware
01:54PM 29.6660 -82.3340 157° South 463 533 24,000 -240 Descending FlightAware
01:55PM 29.5980 -82.3010 157° South 463 533 24,000  Level FlightAware
01:55PM 29.5310 -82.2680 157° South 463 533 24,000  Level FlightAware
01:56PM 29.4640 -82.2360 157° South 463 533 24,000  Level FlightAware
01:57PM 29.3970 -82.2030 157° South 463 533 24,000 -4,680 Level FlightAware
01:57PM 29.2660 -82.1440 159° South 407 468 17,000 -5,400 Descending FlightAware
01:58PM 29.1990 -82.1120 157° South 391 450 15,900 -1,860 Descending FlightAware
01:59PM 29.1220 -82.0750 157° South 380 437 14,400 -1,380 Descending FlightAware
01:59PM 29.0720 -82.0510 157° South 378 435 14,100 -1,200 Descending FlightAware
02:01PM 28.9650 -82.0000 157° South 401 461 12,400 -2,040 Descending FlightAware
02:01PM 28.9340 -81.9430 122° Southeast 379 436 11,100 -1,200 Descending FlightAware
02:02PM 28.8850 -81.8600 124° Southeast 359 413 10,800 -540 Descending FlightAware
02:03PM 28.8390 -81.7820 124° Southeast 320 368 10,200 -1,020 Descending FlightAware
02:03PM 28.8240 -81.7550 122° Southeast 9,300 -1,320 Descending FlightAware
02:04PM 28.7940 -81.7000 122° Southeast 313 360 8,900 -480 Descending FlightAware
02:04PM 28.7870 -81.6880 124° Southeast 313 360 8,900  Level FlightAware
02:04PM 28.7670 -81.6520 122° Southeast 309 356 8,900  Level FlightAware
02:05PM 28.7390 -81.6020 123° Southeast 307 353 8,900  Level FlightAware
02:05PM 28.7170 -81.5680 126° Southeast 300 345 8,900  Level FlightAware
02:06PM 28.7070 -81.5480 120° Southeast 290 334 8,900 -600 Level FlightAware
02:06PM 28.7020 -81.5290 107° East 284 327 8,600 -1,800 Descending FlightAware
02:06PM 28.6940 -81.4900 103° East 287 330 7,700 -2,220 Descending FlightAware
02:07PM 28.6850 -81.4450 103° East 280 322 6,600 -2,040 Descending FlightAware
02:07PM 28.6770 -81.4050 103° East 276 318 5,700 -1,980 Descending FlightAware
02:08PM 28.6690 -81.3670 103° East 272 313 4,800 -1,980 Descending FlightAware
02:08PM 28.6590 -81.3300 107° East 259 298 3,900 -1,860 Descending FlightAware
02:09PM 28.6370 -81.3030 133° Southeast 256 295 3,100 -1,380 Descending FlightAware
02:09PM 28.6230 -81.2970 159° South 239 275 3,000 -180 Descending FlightAware
02:09PM 28.6000 -81.3010 189° South 211 243 3,000 -120 Level FlightAware
02:10PM 28.5700 -81.3000 178° South 194 223 2,900 -360 Descending FlightAware
02:10PM 28.5540 -81.3000 180° South 198 228 2,700 -960 Descending FlightAware
02:11PM 28.5250 -81.3000 180° South 194 223 2,200 -1,020 Descending FlightAware
02:11PM 28.5040 -81.2990 178° South 194 223 1,800 -1,020 Descending FlightAware
02:11PM 28.4770 -81.2990 180° South 162 186 1,300 -960 Descending FlightAware
02:12PM 28.4660 -81.2990 180° South 148 170 1,100 -780 Descending FlightAware
02:12PM 28.4490 -81.2990 180° South 150 173 800 -780 Descending FlightAware
02:12PM 28.4380 -81.2980 175° South 144 166 600 -780 Descending FlightAware
02:13PM 28.4210 -81.2980 180° South 145 167 300 -780 Descending FlightAware
02:13PM 28.4110 -81.2980 180° South 147 169 100 -840 Descending FlightAware